createdAt,value
2017-08-26T00:00:29.262Z,24.07
2017-08-26T00:03:03.392Z,24.70
2017-08-26T00:05:32.033Z,22.57
2017-08-26T00:08:00.428Z,23.73
2017-08-26T00:10:28.703Z,24.83
2017-08-26T00:12:57.295Z,24.47
2017-08-26T00:15:25.584Z,25.63
2017-08-26T00:17:53.898Z,24.13
2017-08-26T00:20:22.769Z,21.83
2017-08-26T00:22:51.051Z,23.90
2017-08-26T00:25:19.431Z,26.30
2017-08-26T00:27:48.122Z,23.90
2017-08-26T00:30:16.415Z,24.87
2017-08-26T00:32:44.732Z,24.53
2017-08-26T00:35:13.362Z,24.33
2017-08-26T00:37:42.301Z,25.03
2017-08-26T00:40:10.608Z,25.30
2017-08-26T00:42:39.164Z,25.43
2017-08-26T00:45:07.475Z,25.10
2017-08-26T00:47:35.780Z,25.07
2017-08-26T00:50:04.340Z,25.13
2017-08-26T00:52:32.672Z,23.20
2017-08-26T00:55:01.015Z,24.77
2017-08-26T00:57:29.642Z,23.43
2017-08-26T00:59:58.025Z,23.53
2017-08-26T01:02:26.291Z,27.43
2017-08-26T01:04:54.898Z,24.63
2017-08-26T01:07:28.972Z,25.60
2017-08-26T01:09:57.598Z,23.50
2017-08-26T01:12:26.391Z,24.10
2017-08-26T01:14:55.396Z,24.00
2017-08-26T01:17:24.741Z,25.07
2017-08-26T01:19:53.036Z,23.80
2017-08-26T01:22:21.850Z,21.73
2017-08-26T01:24:50.453Z,22.70
2017-08-26T01:27:18.752Z,22.23
2017-08-26T01:29:47.064Z,23.53
2017-08-26T01:32:16.426Z,23.90
2017-08-26T01:34:44.801Z,24.80
2017-08-26T01:37:13.081Z,24.40
2017-08-26T01:39:41.700Z,22.77
2017-08-26T01:42:10.745Z,24.67
2017-08-26T01:44:39.056Z,22.30
2017-08-26T01:47:07.716Z,23.37
2017-08-26T01:49:36.135Z,22.63
2017-08-26T01:52:05.527Z,22.27
2017-08-26T01:54:35.001Z,23.50
2017-08-26T01:57:04.121Z,23.57
2017-08-26T01:59:32.442Z,24.07
2017-08-26T02:02:01.140Z,24.13
2017-08-26T02:04:29.448Z,23.20
2017-08-26T02:06:57.745Z,24.83
2017-08-26T02:09:26.381Z,22.23
2017-08-26T02:11:54.699Z,23.30
2017-08-26T02:14:23.032Z,22.17
2017-08-26T02:16:51.610Z,23.00
2017-08-26T02:19:22.975Z,24.93
2017-08-26T02:21:51.556Z,23.30
2017-08-26T02:24:20.532Z,23.90
2017-08-26T02:26:48.853Z,23.60
2017-08-26T02:29:17.437Z,23.73
2017-08-26T02:31:45.715Z,22.27
2017-08-26T02:34:15.465Z,21.67
2017-08-26T02:36:45.129Z,21.93
2017-08-26T02:39:13.459Z,24.17
2017-08-26T02:41:42.016Z,22.47
2017-08-26T02:44:10.603Z,23.53
2017-08-26T02:46:38.898Z,21.80
2017-08-26T02:49:07.236Z,21.90
2017-08-26T02:51:36.277Z,21.43
2017-08-26T02:54:04.590Z,24.73
2017-08-26T02:56:33.355Z,22.67
2017-08-26T02:59:02.650Z,22.80
2017-08-26T03:01:30.940Z,23.40
2017-08-26T03:03:59.297Z,22.87
2017-08-26T03:06:28.535Z,21.57
2017-08-26T03:08:56.833Z,20.13
2017-08-26T03:11:25.324Z,22.27
2017-08-26T03:13:53.951Z,21.60
2017-08-26T03:16:23.027Z,22.57
2017-08-26T03:18:51.323Z,21.07
2017-08-26T03:21:20.035Z,20.40
2017-08-26T03:23:48.350Z,19.60
2017-08-26T03:26:17.407Z,19.53
2017-08-26T03:28:46.216Z,19.70
2017-08-26T03:31:14.609Z,20.07
2017-08-26T03:33:43.254Z,18.60
2017-08-26T03:36:11.902Z,19.87
2017-08-26T03:38:41.081Z,18.53
2017-08-26T03:41:10.425Z,19.00
2017-08-26T03:43:39.894Z,19.13
2017-08-26T03:46:08.697Z,19.20
2017-08-26T03:48:37.080Z,18.20
2017-08-26T03:51:05.858Z,18.13
2017-08-26T03:53:34.138Z,18.40
2017-08-26T03:56:03.330Z,18.43
2017-08-26T03:58:32.579Z,18.80
2017-08-26T04:01:00.881Z,20.17
2017-08-26T04:03:29.185Z,18.10
2017-08-26T04:05:57.776Z,16.20
2017-08-26T04:08:26.099Z,17.23
2017-08-26T04:10:54.373Z,16.00
2017-08-26T04:13:23.053Z,15.47
2017-08-26T04:15:51.441Z,17.13
2017-08-26T04:18:19.720Z,17.30
2017-08-26T04:20:50.059Z,16.67
2017-08-26T04:23:18.509Z,18.23
2017-08-26T04:25:47.122Z,16.43
2017-08-26T04:28:15.711Z,15.70
2017-08-26T04:30:44.039Z,14.70
2017-08-26T04:33:12.334Z,15.77
2017-08-26T04:35:40.951Z,14.73
2017-08-26T04:38:09.243Z,15.40
2017-08-26T04:40:37.570Z,14.13
2017-08-26T04:43:06.194Z,14.83
2017-08-26T04:45:34.500Z,14.70
2017-08-26T04:48:03.355Z,15.20
2017-08-26T04:50:32.996Z,13.83
2017-08-26T04:53:01.288Z,14.57
2017-08-26T04:55:29.617Z,13.97
2017-08-26T04:57:58.968Z,14.53
2017-08-26T05:00:27.310Z,12.60
2017-08-26T05:02:55.597Z,12.77
2017-08-26T05:05:24.202Z,13.60
2017-08-26T05:07:52.592Z,12.50
2017-08-26T05:10:21.508Z,11.93
2017-08-26T05:12:50.079Z,13.33
2017-08-26T05:15:18.477Z,12.90
2017-08-26T05:17:46.760Z,12.37
2017-08-26T05:20:16.174Z,12.30
2017-08-26T05:22:44.555Z,11.50
2017-08-26T05:25:12.831Z,12.20
2017-08-26T05:27:41.431Z,12.47
2017-08-26T05:30:09.746Z,12.97
2017-08-26T05:32:38.060Z,10.50
2017-08-26T05:35:06.677Z,11.30
2017-08-26T05:37:35.565Z,9.33
2017-08-26T05:40:04.559Z,9.70
2017-08-26T05:42:33.169Z,10.63
2017-08-26T05:45:01.461Z,10.00
2017-08-26T05:47:29.741Z,9.00
2017-08-26T05:49:58.705Z,9.23
2017-08-26T05:52:27.016Z,8.87
2017-08-26T05:54:56.214Z,9.67
2017-08-26T05:57:24.872Z,10.00
2017-08-26T05:59:53.168Z,9.17
2017-08-26T06:09:09.443Z,8.57
2017-08-26T06:11:37.748Z,8.03
2017-08-26T06:14:06.840Z,9.20
2017-08-26T06:16:36.169Z,7.23
2017-08-26T06:19:04.455Z,8.20
2017-08-26T06:21:32.756Z,8.20
2017-08-26T06:24:01.403Z,8.23
2017-08-26T06:26:30.015Z,6.63
2017-08-26T06:28:59.203Z,7.97
2017-08-26T06:31:27.786Z,6.67
2017-08-26T06:33:56.092Z,8.10
2017-08-26T06:36:25.044Z,7.87
2017-08-26T06:38:54.343Z,7.80
2017-08-26T06:41:22.641Z,6.60
2017-08-26T06:43:51.316Z,7.10
2017-08-26T06:46:19.943Z,7.47
2017-08-26T06:48:48.890Z,7.03
2017-08-26T06:51:17.177Z,6.70
2017-08-26T06:53:45.750Z,6.43
2017-08-26T06:56:14.025Z,6.67
2017-08-26T06:58:44.137Z,6.20
2017-08-26T07:01:12.776Z,5.63
2017-08-26T07:03:41.047Z,5.70
2017-08-26T07:06:09.344Z,5.20
2017-08-26T07:08:39.244Z,5.00
2017-08-26T07:11:08.911Z,4.80
2017-08-26T07:13:37.212Z,4.60
2017-08-26T07:16:05.854Z,5.10
2017-08-26T07:18:34.148Z,4.33
2017-08-26T07:21:02.695Z,5.50
2017-08-26T07:23:31.291Z,4.20
2017-08-26T07:25:59.597Z,4.60
2017-08-26T07:28:28.614Z,3.63
2017-08-26T07:30:57.896Z,3.53
2017-08-26T07:33:26.164Z,4.03
2017-08-26T07:35:55.002Z,3.40
2017-08-26T07:38:23.605Z,3.47
2017-08-26T07:40:51.891Z,3.87
2017-08-26T07:43:20.206Z,4.03
2017-08-26T07:45:49.618Z,3.77
2017-08-26T07:48:17.924Z,3.37
2017-08-26T07:50:46.934Z,3.20
2017-08-26T07:53:15.593Z,3.47
2017-08-26T07:55:43.957Z,3.50
2017-08-26T07:58:12.249Z,3.30
2017-08-26T08:00:40.799Z,2.80
2017-08-26T08:03:09.136Z,3.40
2017-08-26T08:05:37.430Z,3.50
2017-08-26T08:08:06.049Z,3.50
2017-08-26T08:10:35.332Z,3.17
2017-08-26T08:13:03.604Z,3.27
2017-08-26T08:15:32.530Z,3.20
2017-08-26T08:18:00.820Z,3.30
2017-08-26T08:20:29.105Z,3.43
2017-08-26T08:22:58.520Z,3.23
2017-08-26T08:25:26.860Z,3.50
2017-08-26T08:27:55.173Z,2.80
2017-08-26T08:30:23.813Z,3.33
2017-08-26T08:32:52.109Z,3.60
2017-08-26T08:35:20.378Z,3.53
2017-08-26T08:37:49.018Z,3.70
2017-08-26T08:40:19.045Z,3.47
2017-08-26T08:42:47.350Z,3.20
2017-08-26T08:45:15.968Z,2.70
2017-08-26T08:47:45.157Z,3.17
2017-08-26T08:50:13.448Z,3.23
2017-08-26T08:52:42.227Z,3.60
2017-08-26T08:55:11.695Z,3.10
2017-08-26T08:57:40.718Z,2.93
2017-08-26T09:00:09.302Z,2.43
2017-08-26T09:02:37.646Z,3.07
2017-08-26T09:05:05.937Z,2.57
2017-08-26T09:07:34.569Z,3.20
2017-08-26T09:10:03.949Z,2.60
2017-08-26T09:12:32.257Z,2.87
2017-08-26T09:15:00.818Z,2.63
2017-08-26T09:17:29.110Z,2.67
2017-08-26T09:19:57.379Z,2.83
2017-08-26T09:22:26.004Z,2.87
2017-08-26T09:24:55.319Z,2.87
2017-08-26T09:27:23.647Z,2.67
2017-08-26T09:29:52.293Z,3.40
2017-08-26T09:32:21.210Z,3.10
2017-08-26T09:34:49.540Z,3.37
2017-08-26T09:37:18.203Z,2.73
2017-08-26T09:39:47.028Z,2.33
2017-08-26T09:42:15.313Z,2.90
2017-08-26T09:44:44.015Z,2.73
2017-08-26T09:47:12.564Z,3.00
2017-08-26T09:49:40.888Z,2.47
2017-08-26T09:52:10.396Z,2.57
2017-08-26T09:54:38.704Z,2.70
2017-08-26T09:57:07.294Z,2.77
2017-08-26T09:59:35.879Z,2.90
2017-08-26T10:02:04.198Z,3.30
2017-08-26T10:04:33.167Z,3.27
2017-08-26T10:07:01.810Z,3.13
2017-08-26T10:09:30.151Z,3.53
2017-08-26T10:11:58.452Z,2.70
2017-08-26T10:14:27.771Z,2.90
2017-08-26T10:16:56.058Z,3.70
2017-08-26T10:19:24.346Z,2.30
2017-08-26T10:21:52.922Z,2.80
2017-08-26T10:24:21.253Z,3.03
2017-08-26T10:26:50.382Z,2.83
2017-08-26T10:29:19.573Z,3.10
2017-08-26T10:31:48.620Z,3.50
2017-08-26T10:34:17.156Z,3.07
2017-08-26T10:36:45.735Z,3.27
2017-08-26T10:39:14.175Z,2.90
2017-08-26T10:41:42.468Z,2.80
2017-08-26T10:44:13.877Z,3.20
2017-08-26T10:46:42.221Z,3.00
2017-08-26T10:49:10.531Z,3.37
2017-08-26T10:51:39.885Z,3.60
2017-08-26T10:54:08.300Z,3.27
2017-08-26T10:56:36.579Z,2.90
2017-08-26T10:59:05.965Z,3.63
2017-08-26T11:01:34.336Z,3.90
2017-08-26T11:04:02.630Z,3.60
2017-08-26T11:06:31.221Z,3.43
2017-08-26T11:09:00.652Z,4.63
2017-08-26T11:11:28.938Z,3.87
2017-08-26T11:13:57.299Z,3.40
2017-08-26T11:16:26.940Z,4.13
2017-08-26T11:18:55.539Z,3.70
2017-08-26T11:21:23.824Z,3.57
2017-08-26T11:23:52.112Z,4.23
2017-08-26T11:26:20.731Z,4.00
2017-08-26T11:28:50.085Z,4.70
2017-08-26T11:31:18.378Z,4.07
2017-08-26T11:33:46.976Z,3.47
2017-08-26T11:36:16.148Z,3.90
2017-08-26T11:38:44.450Z,3.83
2017-08-26T11:41:12.762Z,4.83
2017-08-26T11:43:41.868Z,4.33
2017-08-26T11:46:11.074Z,4.60
2017-08-26T11:48:39.645Z,5.77
2017-08-26T11:51:08.020Z,4.60
2017-08-26T11:53:37.940Z,3.80
2017-08-26T11:56:06.108Z,4.80
2017-08-26T11:58:35.743Z,4.10
2017-08-26T12:01:04.185Z,3.93
2017-08-26T12:03:32.490Z,4.90
2017-08-26T12:06:00.803Z,4.90
2017-08-26T12:08:29.407Z,4.00
2017-08-26T12:10:57.670Z,4.63
2017-08-26T12:13:26.399Z,4.40
2017-08-26T12:15:54.881Z,4.53
2017-08-26T12:18:23.219Z,4.13
2017-08-26T12:20:51.811Z,4.83
2017-08-26T12:23:20.545Z,4.23
2017-08-26T12:25:48.838Z,4.30
2017-08-26T12:28:17.425Z,4.33
2017-08-26T12:30:45.715Z,4.63
2017-08-26T12:33:14.000Z,5.07
2017-08-26T12:35:42.637Z,5.10
2017-08-26T12:38:11.116Z,4.60
2017-08-26T12:40:39.434Z,6.60
2017-08-26T12:43:08.125Z,5.43
2017-08-26T12:45:37.372Z,6.00
2017-08-26T12:48:05.650Z,6.03
2017-08-26T12:50:34.000Z,5.87
2017-08-26T12:53:03.284Z,5.13
2017-08-26T12:55:31.863Z,4.90
2017-08-26T12:58:00.265Z,6.77
2017-08-26T13:00:29.883Z,5.53
2017-08-26T13:02:58.592Z,6.50
2017-08-26T13:05:27.204Z,6.00
2017-08-26T13:07:55.466Z,6.17
2017-08-26T13:10:25.150Z,5.50
2017-08-26T13:12:53.510Z,8.90
2017-08-26T13:15:21.905Z,6.73
2017-08-26T13:17:51.509Z,6.00
2017-08-26T13:20:19.829Z,6.40
2017-08-26T13:22:48.825Z,6.90
2017-08-26T13:25:18.149Z,6.13
2017-08-26T13:27:47.224Z,6.20
2017-08-26T13:30:16.245Z,6.10
2017-08-26T13:32:44.876Z,6.60
2017-08-26T13:35:14.836Z,7.97
2017-08-26T13:37:43.108Z,6.27
2017-08-26T13:40:11.674Z,6.57
2017-08-26T13:42:39.992Z,7.70
2017-08-26T13:45:08.341Z,6.57
2017-08-26T13:47:36.978Z,6.90
2017-08-26T13:50:05.287Z,7.73
2017-08-26T13:52:34.561Z,7.30
2017-08-26T13:55:02.918Z,10.20
2017-08-26T13:57:31.586Z,7.93
2017-08-26T14:00:00.257Z,7.67
2017-08-26T14:02:28.971Z,8.43
2017-08-26T14:04:58.401Z,8.27
2017-08-26T14:07:27.056Z,7.10
2017-08-26T14:09:55.391Z,7.20
2017-08-26T14:12:24.231Z,6.63
2017-08-26T14:14:53.660Z,8.87
2017-08-26T14:17:22.852Z,8.17
2017-08-26T14:19:51.187Z,8.30
2017-08-26T14:22:19.815Z,8.40
2017-08-26T14:24:48.826Z,7.60
2017-08-26T14:27:17.132Z,7.00
2017-08-26T14:29:45.838Z,7.53
2017-08-26T14:32:14.126Z,7.30
2017-08-26T14:34:42.416Z,7.90
2017-08-26T14:37:11.464Z,8.33
2017-08-26T14:39:40.673Z,6.93
2017-08-26T14:42:08.946Z,7.13
2017-08-26T14:44:37.647Z,7.50
2017-08-26T14:47:07.801Z,7.90
2017-08-26T14:49:36.071Z,9.10
2017-08-26T14:52:04.650Z,6.87
2017-08-26T14:54:32.932Z,6.80
2017-08-26T14:57:01.223Z,7.13
2017-08-26T14:59:29.888Z,6.47
2017-08-26T15:01:58.855Z,6.60
2017-08-26T15:04:27.309Z,7.20
2017-08-26T15:06:56.374Z,6.33
2017-08-26T15:09:25.092Z,7.13
2017-08-26T15:11:53.626Z,6.80
2017-08-26T15:14:22.043Z,6.77
2017-08-26T15:16:50.438Z,8.67
2017-08-26T15:19:19.164Z,8.10
2017-08-26T15:21:47.473Z,7.30
2017-08-26T15:24:15.793Z,7.60
2017-08-26T15:26:44.451Z,7.33
2017-08-26T15:29:12.755Z,6.20
2017-08-26T15:31:41.508Z,8.00
2017-08-26T15:34:11.396Z,7.17
2017-08-26T15:36:41.509Z,6.00
2017-08-26T15:39:11.310Z,6.60
2017-08-26T15:41:39.467Z,7.10
2017-08-26T15:44:07.780Z,6.47
2017-08-26T15:46:36.474Z,6.80
2017-08-26T15:49:04.760Z,6.37
2017-08-26T15:51:34.422Z,7.43
2017-08-26T15:54:04.074Z,8.07
2017-08-26T15:56:32.247Z,7.93
2017-08-26T15:59:01.781Z,8.57
2017-08-26T16:01:30.450Z,7.07
2017-08-26T16:03:58.776Z,7.27
2017-08-26T16:06:27.078Z,7.90
2017-08-26T16:08:55.451Z,8.00
2017-08-26T16:11:23.773Z,7.70
2017-08-26T16:13:52.475Z,8.10
2017-08-26T16:16:20.745Z,7.80
2017-08-26T16:18:49.129Z,7.20
2017-08-26T16:21:18.280Z,8.70
2017-08-26T16:23:46.605Z,8.13
2017-08-26T16:26:15.295Z,7.90
2017-08-26T16:28:44.460Z,7.37
2017-08-26T16:31:13.974Z,8.37
2017-08-26T16:33:43.185Z,6.90
2017-08-26T16:36:11.486Z,6.93
2017-08-26T16:38:40.715Z,8.17
2017-08-26T16:41:09.425Z,7.87
2017-08-26T16:43:37.766Z,8.10
2017-08-26T16:46:06.062Z,9.30
2017-08-26T16:48:34.767Z,8.20
2017-08-26T16:51:03.316Z,8.90
2017-08-26T16:53:31.625Z,8.73
2017-08-26T16:55:59.993Z,9.30
2017-08-26T16:58:28.297Z,9.60
2017-08-26T17:00:57.937Z,9.60
2017-08-26T17:03:26.229Z,9.90
2017-08-26T17:05:54.527Z,9.00
2017-08-26T17:08:23.132Z,10.03
2017-08-26T17:10:51.819Z,10.40
2017-08-26T17:13:20.190Z,9.30
2017-08-26T17:15:48.814Z,7.80
2017-08-26T17:18:17.103Z,9.80
2017-08-26T17:20:45.730Z,8.83
2017-08-26T17:23:14.064Z,9.30
2017-08-26T17:25:43.085Z,9.80
2017-08-26T17:28:13.058Z,9.90
2017-08-26T17:30:41.448Z,9.17
2017-08-26T17:33:09.771Z,10.30
2017-08-26T17:35:38.430Z,10.03
2017-08-26T17:38:07.063Z,8.50
2017-08-26T17:40:35.389Z,9.43
2017-08-26T17:43:04.284Z,9.80
2017-08-26T17:45:32.586Z,10.40
2017-08-26T17:48:00.871Z,9.87
2017-08-26T17:50:31.159Z,9.00
2017-08-26T17:52:59.448Z,9.00
2017-08-26T17:55:27.787Z,9.00
2017-08-26T17:57:56.149Z,9.47
2017-08-26T18:00:24.799Z,10.40
2017-08-26T18:02:53.417Z,9.40
2017-08-26T18:05:22.514Z,9.63
2017-08-26T18:07:51.512Z,10.27
2017-08-26T18:10:20.155Z,11.00
2017-08-26T18:12:48.485Z,9.30
2017-08-26T18:15:18.159Z,9.50
2017-08-26T18:17:46.500Z,10.57
2017-08-26T18:20:14.787Z,10.60
2017-08-26T18:22:43.115Z,11.87
2017-08-26T18:25:11.450Z,11.37
2017-08-26T18:27:40.066Z,10.27
2017-08-26T18:30:08.374Z,10.43
2017-08-26T18:32:36.671Z,10.80
2017-08-26T18:35:05.068Z,10.43
2017-08-26T18:37:33.380Z,10.73
2017-08-26T18:40:02.014Z,10.27
2017-08-26T18:42:31.135Z,10.20
2017-08-26T18:44:59.450Z,9.83
2017-08-26T18:47:28.194Z,10.80
2017-08-26T18:49:56.516Z,11.20
2017-08-26T18:52:24.865Z,10.33
2017-08-26T18:54:53.262Z,10.63
2017-08-26T18:57:22.559Z,9.80
2017-08-26T18:59:51.163Z,11.80
2017-08-26T19:02:19.497Z,12.13
2017-08-26T19:04:47.816Z,12.60
2017-08-26T19:07:16.170Z,13.20
2017-08-26T19:09:44.540Z,12.30
2017-08-26T19:12:13.203Z,12.00
2017-08-26T19:14:42.242Z,11.73
2017-08-26T19:17:10.524Z,12.77
2017-08-26T19:19:38.851Z,13.13
2017-08-26T19:22:07.191Z,12.73
2017-08-26T19:24:35.779Z,11.90
2017-08-26T19:27:04.101Z,11.57
2017-08-26T19:29:32.475Z,14.43
2017-08-26T19:32:01.610Z,13.63
2017-08-26T19:34:31.017Z,11.23
2017-08-26T19:36:59.995Z,12.40
2017-08-26T19:39:29.019Z,12.50
2017-08-26T19:41:57.880Z,12.93
2017-08-26T19:44:26.239Z,13.13
2017-08-26T19:46:54.549Z,11.27
2017-08-26T19:49:23.331Z,13.73
2017-08-26T19:51:52.339Z,15.03
2017-08-26T19:54:20.728Z,14.63
2017-08-26T19:56:50.953Z,15.43
2017-08-26T19:59:19.274Z,15.27
2017-08-26T20:01:48.085Z,14.20
2017-08-26T20:04:16.433Z,13.63
2017-08-26T20:06:44.746Z,14.43
2017-08-26T20:09:13.359Z,13.40
2017-08-26T20:11:42.239Z,14.40
2017-08-26T20:14:10.534Z,15.03
2017-08-26T20:16:39.097Z,14.17
2017-08-26T20:19:07.436Z,15.27
2017-08-26T20:21:35.763Z,14.50
2017-08-26T20:24:04.087Z,14.87
2017-08-26T20:26:32.457Z,13.80
2017-08-26T20:29:01.877Z,14.70
2017-08-26T20:31:30.199Z,15.47
2017-08-26T20:33:58.525Z,14.50
2017-08-26T20:36:27.142Z,14.10
2017-08-26T20:38:55.489Z,13.87
2017-08-26T20:41:23.810Z,13.83
2017-08-26T20:43:52.481Z,14.50
2017-08-26T20:46:20.797Z,15.33
2017-08-26T20:48:49.086Z,14.67
2017-08-26T20:51:17.822Z,14.33
2017-08-26T20:53:46.137Z,14.27
2017-08-26T20:56:14.814Z,14.13
2017-08-26T20:58:43.417Z,15.30
2017-08-26T21:01:13.519Z,14.83
2017-08-26T21:03:41.861Z,15.40
2017-08-26T21:06:10.166Z,15.93
2017-08-26T21:08:39.590Z,14.17
2017-08-26T21:11:08.206Z,14.30
2017-08-26T21:13:36.633Z,15.33
2017-08-26T21:16:05.248Z,15.30
2017-08-26T21:18:33.576Z,14.60
2017-08-26T21:21:01.872Z,13.90
2017-08-26T21:23:31.140Z,16.20
2017-08-26T21:25:59.898Z,15.53
2017-08-26T21:28:28.254Z,16.37
2017-08-26T21:30:56.858Z,16.87
2017-08-26T21:33:25.249Z,15.50
2017-08-26T21:35:53.670Z,13.97
2017-08-26T21:38:22.007Z,14.73
2017-08-26T21:40:50.347Z,16.00
2017-08-26T21:43:20.020Z,16.13
2017-08-26T21:45:49.246Z,14.17
2017-08-26T21:48:17.641Z,13.70
2017-08-26T21:50:46.630Z,16.30
2017-08-26T21:53:14.960Z,16.63
2017-08-26T21:55:43.292Z,16.10
2017-08-26T21:58:11.641Z,18.10
2017-08-26T22:00:40.005Z,16.23
2017-08-26T22:03:09.355Z,17.50
2017-08-26T22:05:37.670Z,17.30
2017-08-26T22:08:05.996Z,17.23
2017-08-26T22:10:34.307Z,18.30
2017-08-26T22:13:02.615Z,16.73
2017-08-26T22:15:31.294Z,18.03
2017-08-26T22:17:59.584Z,17.87
2017-08-26T22:20:27.880Z,17.37
2017-08-26T22:22:56.217Z,17.70
2017-08-26T22:25:24.540Z,18.00
2017-08-26T22:27:53.116Z,18.27
2017-08-26T22:30:22.043Z,17.60
2017-08-26T22:32:50.340Z,17.07
2017-08-26T22:35:19.080Z,16.73
2017-08-26T22:37:47.384Z,18.13
2017-08-26T22:40:16.289Z,17.23
2017-08-26T22:42:44.925Z,18.03
2017-08-26T22:45:13.874Z,17.93
2017-08-26T22:47:42.597Z,18.20
2017-08-26T22:50:10.922Z,18.73
2017-08-26T22:52:40.044Z,18.50
2017-08-26T22:55:08.679Z,20.00
2017-08-26T22:57:37.038Z,19.80
2017-08-26T23:00:05.356Z,18.97
2017-08-26T23:02:34.662Z,21.60
2017-08-26T23:05:04.376Z,22.10
2017-08-26T23:07:33.045Z,21.70
2017-08-26T23:10:01.376Z,21.37
2017-08-26T23:12:30.016Z,21.93
2017-08-26T23:14:58.599Z,20.17
2017-08-26T23:17:27.702Z,20.83
2017-08-26T23:19:57.929Z,19.87
2017-08-26T23:22:27.633Z,19.97
2017-08-26T23:24:55.976Z,22.10
2017-08-26T23:27:24.599Z,21.43
2017-08-26T23:29:53.012Z,21.00
2017-08-26T23:32:21.348Z,22.20
2017-08-26T23:34:49.957Z,21.50
2017-08-26T23:37:18.937Z,21.03
2017-08-26T23:39:47.252Z,21.13
2017-08-26T23:42:16.003Z,20.70
2017-08-26T23:44:44.336Z,21.43
2017-08-26T23:47:12.625Z,22.00
2017-08-26T23:49:40.991Z,21.40
2017-08-26T23:52:09.793Z,20.70
2017-08-26T23:54:38.599Z,21.73
2017-08-26T23:57:07.478Z,21.13
2017-08-26T23:59:35.786Z,21.10
